Terminal Aerodrome Forecast
Issued by NWS

Home | Current Version | Previous Version | Text Only | Print | Product List | Glossary On
Versions: 1 2 3 4 5 6 7 8 9 10 11 12 13 14 15 16 17 18 19 20
000
FTUS43 KILX 271100
TAFDEC
TAF
KDEC 271132Z 2712/2812 30012KT P6SM OVC015
      TEMPO 2712/2714 SCT015 OVC040
     FM272100 30010KT P6SM SCT015
     FM280100 VRB05KT P6SM BKN080=

USA.gov is the U.S. government's official web portal to all federal, state and local government web resources and services.